15CA weather

Stanford University Hospital Center Heliport
Palo Alto, California, United States

Public forecast

Using degrees Fahrenheit for public forecast. Weather courtesy of forecast.io.

Closest aviation weather report (METAR) to Stanford University Hospital Center Heliport

Closest report is Palo Alto Airport of Santa Clara County, 3.2 nm (6.0 km) ENE. Retrieved 2019/10/20 23:47 UTC (1 hour ago):

KPAO 202347Z 32013KT 10SM SKC 22/05 A3009

Closest aviation forecast (TAF) to Stanford University Hospital Center Heliport

Closest forecast is Norman Y. Mineta San Jose International Airport, 12.5 nm (23.2 km) ESE. Retrieved 2019-10-21 00:27 UTC (32 minutes ago):

TAF KSJC 202324Z 2100/2124 32012KT P6SM SKC FM210400 VRB03KT P6SM SKC FM210800 16004KT P6SM SKC FM211700 29004KT P6SM SKC FM212000 30010KT P6SM SKC